sensor_id;sensor_type;location;lat;lon;timestamp;P1;durP1;ratioP1;P2;durP2;ratioP2
48849;SDS011;63210;53.370;6.770;2023-08-21T00:02:17;7.22;;;3.65;;
48849;SDS011;63210;53.370;6.770;2023-08-21T00:04:42;3.60;;;2.80;;
48849;SDS011;63210;53.370;6.770;2023-08-21T00:07:08;5.22;;;3.13;;
48849;SDS011;63210;53.370;6.770;2023-08-21T00:09:34;7.30;;;3.47;;
48849;SDS011;63210;53.370;6.770;2023-08-21T00:12:00;5.95;;;3.95;;
48849;SDS011;63210;53.370;6.770;2023-08-21T00:14:25;4.55;;;3.22;;
48849;SDS011;63210;53.370;6.770;2023-08-21T00:16:50;9.02;;;3.58;;
48849;SDS011;63210;53.370;6.770;2023-08-21T00:19:15;10.95;;;4.35;;
48849;SDS011;63210;53.370;6.770;2023-08-21T00:21:41;8.57;;;4.35;;
48849;SDS011;63210;53.370;6.770;2023-08-21T00:24:06;8.65;;;3.75;;
48849;SDS011;63210;53.370;6.770;2023-08-21T00:26:31;6.65;;;3.10;;
48849;SDS011;63210;53.370;6.770;2023-08-21T00:28:57;7.13;;;3.53;;
48849;SDS011;63210;53.370;6.770;2023-08-21T00:31:22;9.02;;;4.55;;
48849;SDS011;63210;53.370;6.770;2023-08-21T00:33:47;9.35;;;3.25;;
48849;SDS011;63210;53.370;6.770;2023-08-21T00:36:12;6.93;;;3.30;;
48849;SDS011;63210;53.370;6.770;2023-08-21T00:38:38;5.68;;;3.65;;
48849;SDS011;63210;53.370;6.770;2023-08-21T00:41:03;10.82;;;4.25;;
48849;SDS011;63210;53.370;6.770;2023-08-21T00:43:28;6.72;;;3.67;;
48849;SDS011;63210;53.370;6.770;2023-08-21T00:45:54;7.47;;;3.67;;
48849;SDS011;63210;53.370;6.770;2023-08-21T00:48:19;8.20;;;3.90;;
48849;SDS011;63210;53.370;6.770;2023-08-21T00:50:45;5.88;;;3.10;;
48849;SDS011;63210;53.370;6.770;2023-08-21T00:53:10;8.13;;;3.35;;
48849;SDS011;63210;53.370;6.770;2023-08-21T00:55:35;6.57;;;3.42;;
48849;SDS011;63210;53.370;6.770;2023-08-21T00:58:02;8.52;;;4.05;;
48849;SDS011;63210;53.370;6.770;2023-08-21T01:00:28;8.80;;;4.72;;
48849;SDS011;63210;53.370;6.770;2023-08-21T01:02:53;8.40;;;4.30;;
48849;SDS011;63210;53.370;6.770;2023-08-21T01:05:21;11.30;;;5.30;;
48849;SDS011;63210;53.370;6.770;2023-08-21T01:07:50;8.73;;;5.10;;
48849;SDS011;63210;53.370;6.770;2023-08-21T01:10:22;18.63;;;5.33;;
48849;SDS011;63210;53.370;6.770;2023-08-21T01:12:54;12.32;;;4.90;;
48849;SDS011;63210;53.370;6.770;2023-08-21T01:15:22;8.50;;;4.70;;
48849;SDS011;63210;53.370;6.770;2023-08-21T01:17:47;9.13;;;4.03;;
48849;SDS011;63210;53.370;6.770;2023-08-21T01:20:14;7.10;;;4.05;;
48849;SDS011;63210;53.370;6.770;2023-08-21T01:22:40;6.72;;;4.30;;
48849;SDS011;63210;53.370;6.770;2023-08-21T01:25:06;9.32;;;4.00;;
48849;SDS011;63210;53.370;6.770;2023-08-21T01:27:32;8.65;;;4.57;;
48849;SDS011;63210;53.370;6.770;2023-08-21T01:29:57;11.57;;;4.38;;
48849;SDS011;63210;53.370;6.770;2023-08-21T01:32:24;12.18;;;4.30;;
48849;SDS011;63210;53.370;6.770;2023-08-21T01:34:52;10.75;;;5.20;;
48849;SDS011;63210;53.370;6.770;2023-08-21T01:37:19;7.65;;;4.35;;
48849;SDS011;63210;53.370;6.770;2023-08-21T01:39:44;17.25;;;5.35;;
48849;SDS011;63210;53.370;6.770;2023-08-21T01:42:10;10.35;;;5.30;;
48849;SDS011;63210;53.370;6.770;2023-08-21T01:44:36;13.70;;;4.95;;
48849;SDS011;63210;53.370;6.770;2023-08-21T01:47:01;6.77;;;4.00;;
48849;SDS011;63210;53.370;6.770;2023-08-21T01:49:26;10.70;;;4.60;;
48849;SDS011;63210;53.370;6.770;2023-08-21T01:51:51;8.53;;;5.40;;
48849;SDS011;63210;53.370;6.770;2023-08-21T01:54:17;9.32;;;5.13;;
48849;SDS011;63210;53.370;6.770;2023-08-21T01:56:42;12.32;;;4.70;;
48849;SDS011;63210;53.370;6.770;2023-08-21T01:59:07;14.80;;;5.30;;
48849;SDS011;63210;53.370;6.770;2023-08-21T02:01:32;11.35;;;4.57;;
48849;SDS011;63210;53.370;6.770;2023-08-21T02:03:58;6.45;;;4.00;;
48849;SDS011;63210;53.370;6.770;2023-08-21T02:06:24;11.98;;;3.97;;
48849;SDS011;63210;53.370;6.770;2023-08-21T02:08:49;7.40;;;3.65;;
48849;SDS011;63210;53.370;6.770;2023-08-21T02:11:14;7.95;;;4.18;;
48849;SDS011;63210;53.370;6.770;2023-08-21T02:13:40;7.47;;;4.45;;
48849;SDS011;63210;53.370;6.770;2023-08-21T02:16:05;8.27;;;4.40;;
48849;SDS011;63210;53.370;6.770;2023-08-21T02:18:30;8.60;;;4.03;;
48849;SDS011;63210;53.370;6.770;2023-08-21T02:20:56;6.93;;;4.38;;
48849;SDS011;63210;53.370;6.770;2023-08-21T02:23:21;10.20;;;5.30;;
48849;SDS011;63210;53.370;6.770;2023-08-21T02:25:46;12.65;;;5.88;;
48849;SDS011;63210;53.370;6.770;2023-08-21T02:28:14;9.38;;;4.47;;
48849;SDS011;63210;53.370;6.770;2023-08-21T02:30:42;15.38;;;5.65;;
48849;SDS011;63210;53.370;6.770;2023-08-21T02:33:07;8.23;;;3.63;;
48849;SDS011;63210;53.370;6.770;2023-08-21T02:35:33;11.18;;;4.05;;
48849;SDS011;63210;53.370;6.770;2023-08-21T02:37:58;6.43;;;4.10;;
48849;SDS011;63210;53.370;6.770;2023-08-21T02:40:23;12.43;;;4.47;;
48849;SDS011;63210;53.370;6.770;2023-08-21T02:42:49;7.30;;;4.55;;
48849;SDS011;63210;53.370;6.770;2023-08-21T02:45:14;8.98;;;5.07;;
48849;SDS011;63210;53.370;6.770;2023-08-21T02:47:40;8.85;;;5.53;;
48849;SDS011;63210;53.370;6.770;2023-08-21T02:50:06;10.38;;;4.85;;
48849;SDS011;63210;53.370;6.770;2023-08-21T02:52:32;8.65;;;5.18;;
48849;SDS011;63210;53.370;6.770;2023-08-21T02:54:58;9.93;;;5.03;;
48849;SDS011;63210;53.370;6.770;2023-08-21T02:57:24;7.70;;;4.75;;
48849;SDS011;63210;53.370;6.770;2023-08-21T02:59:49;6.45;;;5.30;;
48849;SDS011;63210;53.370;6.770;2023-08-21T03:02:14;8.60;;;4.55;;
48849;SDS011;63210;53.370;6.770;2023-08-21T03:04:39;9.50;;;4.63;;
48849;SDS011;63210;53.370;6.770;2023-08-21T03:07:05;7.30;;;4.50;;
48849;SDS011;63210;53.370;6.770;2023-08-21T03:09:30;9.47;;;5.40;;
48849;SDS011;63210;53.370;6.770;2023-08-21T03:11:55;16.00;;;6.57;;
48849;SDS011;63210;53.370;6.770;2023-08-21T03:14:21;12.02;;;6.13;;
48849;SDS011;63210;53.370;6.770;2023-08-21T03:16:46;11.27;;;6.10;;
48849;SDS011;63210;53.370;6.770;2023-08-21T03:19:11;8.88;;;5.40;;
48849;SDS011;63210;53.370;6.770;2023-08-21T03:21:37;7.22;;;4.88;;
48849;SDS011;63210;53.370;6.770;2023-08-21T03:24:02;9.75;;;5.00;;
48849;SDS011;63210;53.370;6.770;2023-08-21T03:26:27;6.22;;;3.70;;
48849;SDS011;63210;53.370;6.770;2023-08-21T03:28:53;6.47;;;3.63;;
48849;SDS011;63210;53.370;6.770;2023-08-21T03:31:18;8.40;;;4.13;;
48849;SDS011;63210;53.370;6.770;2023-08-21T03:33:43;8.10;;;5.13;;
48849;SDS011;63210;53.370;6.770;2023-08-21T03:36:08;7.55;;;3.78;;
48849;SDS011;63210;53.370;6.770;2023-08-21T03:38:34;11.90;;;4.07;;
48849;SDS011;63210;53.370;6.770;2023-08-21T03:40:59;6.95;;;4.57;;
48849;SDS011;63210;53.370;6.770;2023-08-21T03:43:25;7.93;;;4.22;;
48849;SDS011;63210;53.370;6.770;2023-08-21T03:45:50;4.97;;;3.85;;
48849;SDS011;63210;53.370;6.770;2023-08-21T03:48:15;9.77;;;4.10;;
48849;SDS011;63210;53.370;6.770;2023-08-21T03:50:40;6.53;;;5.07;;
48849;SDS011;63210;53.370;6.770;2023-08-21T03:53:06;10.93;;;5.93;;
48849;SDS011;63210;53.370;6.770;2023-08-21T03:55:31;9.07;;;4.95;;
48849;SDS011;63210;53.370;6.770;2023-08-21T03:57:56;9.83;;;5.33;;
48849;SDS011;63210;53.370;6.770;2023-08-21T04:00:21;8.65;;;4.93;;
48849;SDS011;63210;53.370;6.770;2023-08-21T04:02:47;7.95;;;4.65;;
48849;SDS011;63210;53.370;6.770;2023-08-21T04:05:12;6.63;;;4.43;;
48849;SDS011;63210;53.370;6.770;2023-08-21T04:07:37;6.30;;;4.68;;
48849;SDS011;63210;53.370;6.770;2023-08-21T04:10:03;7.57;;;5.07;;
48849;SDS011;63210;53.370;6.770;2023-08-21T04:12:28;9.70;;;5.30;;
48849;SDS011;63210;53.370;6.770;2023-08-21T04:14:53;4.88;;;4.20;;
48849;SDS011;63210;53.370;6.770;2023-08-21T04:17:22;10.05;;;4.18;;
48849;SDS011;63210;53.370;6.770;2023-08-21T04:19:47;5.72;;;4.55;;
48849;SDS011;63210;53.370;6.770;2023-08-21T04:22:12;10.93;;;3.83;;
48849;SDS011;63210;53.370;6.770;2023-08-21T04:24:38;5.82;;;4.18;;
48849;SDS011;63210;53.370;6.770;2023-08-21T04:27:04;5.93;;;3.95;;
48849;SDS011;63210;53.370;6.770;2023-08-21T04:29:29;5.28;;;4.28;;
48849;SDS011;63210;53.370;6.770;2023-08-21T04:31:54;8.02;;;4.80;;
48849;SDS011;63210;53.370;6.770;2023-08-21T04:34:20;10.33;;;4.40;;
48849;SDS011;63210;53.370;6.770;2023-08-21T04:36:45;13.05;;;4.88;;
48849;SDS011;63210;53.370;6.770;2023-08-21T04:39:10;9.68;;;4.40;;
48849;SDS011;63210;53.370;6.770;2023-08-21T04:41:35;6.63;;;4.50;;
48849;SDS011;63210;53.370;6.770;2023-08-21T04:44:01;10.35;;;4.28;;
48849;SDS011;63210;53.370;6.770;2023-08-21T04:46:28;8.85;;;4.88;;
48849;SDS011;63210;53.370;6.770;2023-08-21T04:48:53;5.40;;;4.25;;
48849;SDS011;63210;53.370;6.770;2023-08-21T04:51:18;9.30;;;4.40;;
48849;SDS011;63210;53.370;6.770;2023-08-21T04:53:45;6.50;;;4.28;;
48849;SDS011;63210;53.370;6.770;2023-08-21T04:56:10;5.82;;;3.67;;
48849;SDS011;63210;53.370;6.770;2023-08-21T04:58:35;5.70;;;3.65;;
48849;SDS011;63210;53.370;6.770;2023-08-21T05:01:01;5.37;;;3.33;;
48849;SDS011;63210;53.370;6.770;2023-08-21T05:03:26;7.07;;;3.70;;
48849;SDS011;63210;53.370;6.770;2023-08-21T05:05:52;7.30;;;3.80;;
48849;SDS011;63210;53.370;6.770;2023-08-21T05:08:17;7.95;;;3.45;;
48849;SDS011;63210;53.370;6.770;2023-08-21T05:10:43;4.60;;;4.00;;
48849;SDS011;63210;53.370;6.770;2023-08-21T05:13:08;8.60;;;4.47;;
48849;SDS011;63210;53.370;6.770;2023-08-21T05:15:33;8.20;;;4.30;;
48849;SDS011;63210;53.370;6.770;2023-08-21T05:17:58;5.33;;;3.73;;
48849;SDS011;63210;53.370;6.770;2023-08-21T05:20:24;5.93;;;3.90;;
48849;SDS011;63210;53.370;6.770;2023-08-21T05:22:49;6.35;;;3.83;;
48849;SDS011;63210;53.370;6.770;2023-08-21T05:25:14;6.65;;;4.18;;
48849;SDS011;63210;53.370;6.770;2023-08-21T05:27:40;4.78;;;3.50;;
48849;SDS011;63210;53.370;6.770;2023-08-21T05:30:05;5.55;;;3.20;;
48849;SDS011;63210;53.370;6.770;2023-08-21T05:32:31;5.22;;;3.30;;
48849;SDS011;63210;53.370;6.770;2023-08-21T05:34:56;6.05;;;3.58;;
48849;SDS011;63210;53.370;6.770;2023-08-21T05:37:21;7.43;;;4.67;;
48849;SDS011;63210;53.370;6.770;2023-08-21T05:39:46;7.20;;;4.43;;
48849;SDS011;63210;53.370;6.770;2023-08-21T05:42:13;6.68;;;3.58;;
48849;SDS011;63210;53.370;6.770;2023-08-21T05:44:39;5.18;;;3.90;;
48849;SDS011;63210;53.370;6.770;2023-08-21T05:47:04;7.07;;;4.70;;
48849;SDS011;63210;53.370;6.770;2023-08-21T05:49:29;8.77;;;4.22;;
48849;SDS011;63210;53.370;6.770;2023-08-21T05:51:55;9.02;;;4.88;;
48849;SDS011;63210;53.370;6.770;2023-08-21T05:54:21;11.55;;;5.72;;
48849;SDS011;63210;53.370;6.770;2023-08-21T05:56:47;9.73;;;5.13;;
48849;SDS011;63210;53.370;6.770;2023-08-21T05:59:12;11.13;;;5.85;;
48849;SDS011;63210;53.370;6.770;2023-08-21T06:01:37;13.18;;;6.25;;
48849;SDS011;63210;53.370;6.770;2023-08-21T06:04:03;11.45;;;6.28;;
48849;SDS011;63210;53.370;6.770;2023-08-21T06:06:28;8.80;;;5.40;;
48849;SDS011;63210;53.370;6.770;2023-08-21T06:08:54;10.35;;;5.53;;
48849;SDS011;63210;53.370;6.770;2023-08-21T06:11:19;9.00;;;6.07;;
48849;SDS011;63210;53.370;6.770;2023-08-21T06:13:44;11.45;;;5.25;;
48849;SDS011;63210;53.370;6.770;2023-08-21T06:16:10;13.40;;;6.35;;
48849;SDS011;63210;53.370;6.770;2023-08-21T06:18:35;11.18;;;6.07;;
48849;SDS011;63210;53.370;6.770;2023-08-21T06:21:00;8.40;;;5.57;;
48849;SDS011;63210;53.370;6.770;2023-08-21T06:23:26;11.25;;;6.70;;
48849;SDS011;63210;53.370;6.770;2023-08-21T06:25:51;12.57;;;6.43;;
48849;SDS011;63210;53.370;6.770;2023-08-21T06:28:16;11.10;;;6.80;;
48849;SDS011;63210;53.370;6.770;2023-08-21T06:30:42;12.65;;;6.25;;
48849;SDS011;63210;53.370;6.770;2023-08-21T06:33:07;12.93;;;6.72;;
48849;SDS011;63210;53.370;6.770;2023-08-21T06:35:35;18.57;;;6.93;;
48849;SDS011;63210;53.370;6.770;2023-08-21T06:38:00;12.00;;;6.47;;
48849;SDS011;63210;53.370;6.770;2023-08-21T06:40:26;14.60;;;6.72;;
48849;SDS011;63210;53.370;6.770;2023-08-21T06:45:22;11.50;;;6.38;;
48849;SDS011;63210;53.370;6.770;2023-08-21T06:47:47;9.93;;;5.43;;
48849;SDS011;63210;53.370;6.770;2023-08-21T06:50:15;13.95;;;6.60;;
48849;SDS011;63210;53.370;6.770;2023-08-21T06:52:41;15.82;;;6.90;;
48849;SDS011;63210;53.370;6.770;2023-08-21T06:55:06;10.07;;;5.90;;
48849;SDS011;63210;53.370;6.770;2023-08-21T06:57:32;10.18;;;6.05;;
48849;SDS011;63210;53.370;6.770;2023-08-21T06:59:57;11.98;;;6.15;;
48849;SDS011;63210;53.370;6.770;2023-08-21T07:02:22;11.30;;;5.70;;
48849;SDS011;63210;53.370;6.770;2023-08-21T07:04:47;10.48;;;5.45;;
48849;SDS011;63210;53.370;6.770;2023-08-21T07:07:13;12.85;;;5.32;;
48849;SDS011;63210;53.370;6.770;2023-08-21T07:09:38;10.48;;;4.50;;
48849;SDS011;63210;53.370;6.770;2023-08-21T07:12:03;9.23;;;4.37;;
48849;SDS011;63210;53.370;6.770;2023-08-21T07:14:29;8.63;;;3.67;;
48849;SDS011;63210;53.370;6.770;2023-08-21T07:16:54;9.07;;;3.20;;
48849;SDS011;63210;53.370;6.770;2023-08-21T07:19:19;6.18;;;3.55;;
48849;SDS011;63210;53.370;6.770;2023-08-21T07:21:45;7.97;;;3.55;;
48849;SDS011;63210;53.370;6.770;2023-08-21T07:24:10;9.77;;;3.42;;
48849;SDS011;63210;53.370;6.770;2023-08-21T07:26:35;7.15;;;2.53;;
48849;SDS011;63210;53.370;6.770;2023-08-21T07:29:00;6.35;;;2.75;;
48849;SDS011;63210;53.370;6.770;2023-08-21T07:31:26;6.23;;;2.53;;
48849;SDS011;63210;53.370;6.770;2023-08-21T07:33:52;7.53;;;2.72;;
48849;SDS011;63210;53.370;6.770;2023-08-21T07:36:18;6.05;;;2.30;;
48849;SDS011;63210;53.370;6.770;2023-08-21T07:38:43;10.35;;;2.50;;
48849;SDS011;63210;53.370;6.770;2023-08-21T07:41:09;10.32;;;2.80;;
48849;SDS011;63210;53.370;6.770;2023-08-21T07:43:42;5.20;;;1.75;;
48849;SDS011;63210;53.370;6.770;2023-08-21T07:46:09;6.20;;;2.05;;
48849;SDS011;63210;53.370;6.770;2023-08-21T07:48:40;6.20;;;1.80;;
48849;SDS011;63210;53.370;6.770;2023-08-21T07:51:06;6.95;;;2.00;;
48849;SDS011;63210;53.370;6.770;2023-08-21T07:53:31;5.53;;;2.25;;
48849;SDS011;63210;53.370;6.770;2023-08-21T07:55:58;6.32;;;1.90;;
48849;SDS011;63210;53.370;6.770;2023-08-21T07:58:23;5.45;;;2.10;;
48849;SDS011;63210;53.370;6.770;2023-08-21T08:00:48;4.10;;;1.70;;
48849;SDS011;63210;53.370;6.770;2023-08-21T08:03:14;3.50;;;1.50;;
48849;SDS011;63210;53.370;6.770;2023-08-21T08:05:39;5.95;;;2.33;;
48849;SDS011;63210;53.370;6.770;2023-08-21T08:08:05;3.78;;;2.03;;
48849;SDS011;63210;53.370;6.770;2023-08-21T08:10:30;5.97;;;2.28;;
48849;SDS011;63210;53.370;6.770;2023-08-21T08:12:55;5.82;;;2.13;;
48849;SDS011;63210;53.370;6.770;2023-08-21T08:15:21;4.60;;;1.65;;
48849;SDS011;63210;53.370;6.770;2023-08-21T08:17:46;5.85;;;2.05;;
48849;SDS011;63210;53.370;6.770;2023-08-21T08:20:12;5.45;;;1.90;;
48849;SDS011;63210;53.370;6.770;2023-08-21T08:22:37;4.05;;;1.70;;
48849;SDS011;63210;53.370;6.770;2023-08-21T08:25:03;4.35;;;1.65;;
48849;SDS011;63210;53.370;6.770;2023-08-21T08:27:28;4.05;;;1.30;;
48849;SDS011;63210;53.370;6.770;2023-08-21T08:29:54;3.67;;;1.50;;
48849;SDS011;63210;53.370;6.770;2023-08-21T08:32:20;5.27;;;1.60;;
48849;SDS011;63210;53.370;6.770;2023-08-21T08:34:54;3.28;;;1.60;;
48849;SDS011;63210;53.370;6.770;2023-08-21T08:37:19;5.38;;;1.52;;
48849;SDS011;63210;53.370;6.770;2023-08-21T08:39:46;9.65;;;1.83;;
48849;SDS011;63210;53.370;6.770;2023-08-21T08:42:11;5.15;;;1.30;;
48849;SDS011;63210;53.370;6.770;2023-08-21T08:44:36;4.13;;;1.25;;
48849;SDS011;63210;53.370;6.770;2023-08-21T08:47:03;9.15;;;3.47;;
48849;SDS011;63210;53.370;6.770;2023-08-21T08:49:28;4.18;;;1.85;;
48849;SDS011;63210;53.370;6.770;2023-08-21T08:51:54;5.32;;;2.28;;
48849;SDS011;63210;53.370;6.770;2023-08-21T08:54:21;5.07;;;1.75;;
48849;SDS011;63210;53.370;6.770;2023-08-21T08:56:47;7.53;;;1.92;;
48849;SDS011;63210;53.370;6.770;2023-08-21T08:59:13;4.00;;;1.70;;
48849;SDS011;63210;53.370;6.770;2023-08-21T09:01:40;6.47;;;2.15;;
48849;SDS011;63210;53.370;6.770;2023-08-21T09:04:05;4.95;;;2.10;;
48849;SDS011;63210;53.370;6.770;2023-08-21T09:06:31;7.75;;;1.52;;
48849;SDS011;63210;53.370;6.770;2023-08-21T09:08:57;6.22;;;2.13;;
48849;SDS011;63210;53.370;6.770;2023-08-21T09:11:22;7.03;;;2.00;;
48849;SDS011;63210;53.370;6.770;2023-08-21T09:13:48;9.07;;;1.92;;
48849;SDS011;63210;53.370;6.770;2023-08-21T09:16:14;4.15;;;1.77;;
48849;SDS011;63210;53.370;6.770;2023-08-21T09:21:15;3.17;;;1.67;;
48849;SDS011;63210;53.370;6.770;2023-08-21T09:23:40;11.43;;;1.90;;
48849;SDS011;63210;53.370;6.770;2023-08-21T09:26:05;5.45;;;1.65;;
48849;SDS011;63210;53.370;6.770;2023-08-21T09:28:31;5.45;;;1.60;;
48849;SDS011;63210;53.370;6.770;2023-08-21T09:30:56;5.00;;;1.60;;
48849;SDS011;63210;53.370;6.770;2023-08-21T09:33:23;4.20;;;1.65;;
48849;SDS011;63210;53.370;6.770;2023-08-21T09:35:51;7.40;;;1.20;;
48849;SDS011;63210;53.370;6.770;2023-08-21T09:38:17;4.70;;;1.40;;
48849;SDS011;63210;53.370;6.770;2023-08-21T09:40:49;6.43;;;1.70;;
48849;SDS011;63210;53.370;6.770;2023-08-21T09:43:18;5.03;;;1.70;;
48849;SDS011;63210;53.370;6.770;2023-08-21T09:45:48;4.95;;;1.60;;
48849;SDS011;63210;53.370;6.770;2023-08-21T09:48:14;5.25;;;1.33;;
48849;SDS011;63210;53.370;6.770;2023-08-21T09:50:39;5.25;;;1.63;;
48849;SDS011;63210;53.370;6.770;2023-08-21T09:53:08;4.43;;;1.50;;
48849;SDS011;63210;53.370;6.770;2023-08-21T09:55:34;4.25;;;1.27;;
48849;SDS011;63210;53.370;6.770;2023-08-21T09:58:00;3.95;;;1.67;;
48849;SDS011;63210;53.370;6.770;2023-08-21T10:00:33;3.45;;;1.30;;
48849;SDS011;63210;53.370;6.770;2023-08-21T10:03:03;2.58;;;1.00;;
48849;SDS011;63210;53.370;6.770;2023-08-21T10:05:29;4.72;;;1.35;;
48849;SDS011;63210;53.370;6.770;2023-08-21T10:07:56;2.47;;;1.10;;
48849;SDS011;63210;53.370;6.770;2023-08-21T10:10:23;4.25;;;1.40;;
48849;SDS011;63210;53.370;6.770;2023-08-21T10:12:49;4.38;;;1.42;;
48849;SDS011;63210;53.370;6.770;2023-08-21T10:15:14;4.47;;;1.40;;
48849;SDS011;63210;53.370;6.770;2023-08-21T10:17:41;2.63;;;1.20;;
48849;SDS011;63210;53.370;6.770;2023-08-21T10:20:08;5.15;;;0.98;;
48849;SDS011;63210;53.370;6.770;2023-08-21T10:22:37;6.45;;;1.40;;
48849;SDS011;63210;53.370;6.770;2023-08-21T10:25:02;4.68;;;1.20;;
48849;SDS011;63210;53.370;6.770;2023-08-21T10:27:30;4.55;;;1.20;;
48849;SDS011;63210;53.370;6.770;2023-08-21T10:29:56;4.18;;;1.25;;
48849;SDS011;63210;53.370;6.770;2023-08-21T10:32:22;5.70;;;1.50;;
48849;SDS011;63210;53.370;6.770;2023-08-21T10:34:51;3.60;;;1.45;;
48849;SDS011;63210;53.370;6.770;2023-08-21T10:37:16;3.97;;;1.70;;
48849;SDS011;63210;53.370;6.770;2023-08-21T10:39:55;2.72;;;1.02;;
48849;SDS011;63210;53.370;6.770;2023-08-21T10:42:21;3.85;;;1.33;;
48849;SDS011;63210;53.370;6.770;2023-08-21T10:49:52;4.00;;;1.40;;
48849;SDS011;63210;53.370;6.770;2023-08-21T10:52:20;3.42;;;1.10;;
48849;SDS011;63210;53.370;6.770;2023-08-21T10:54:47;4.50;;;1.20;;
48849;SDS011;63210;53.370;6.770;2023-08-21T10:57:12;4.03;;;1.40;;
48849;SDS011;63210;53.370;6.770;2023-08-21T10:59:38;3.28;;;1.02;;
48849;SDS011;63210;53.370;6.770;2023-08-21T11:02:03;3.17;;;1.13;;
48849;SDS011;63210;53.370;6.770;2023-08-21T11:04:28;3.35;;;1.13;;
48849;SDS011;63210;53.370;6.770;2023-08-21T11:06:53;5.15;;;1.20;;
48849;SDS011;63210;53.370;6.770;2023-08-21T11:09:19;4.60;;;1.05;;
48849;SDS011;63210;53.370;6.770;2023-08-21T11:11:44;3.20;;;1.05;;
48849;SDS011;63210;53.370;6.770;2023-08-21T11:14:09;2.75;;;1.05;;
48849;SDS011;63210;53.370;6.770;2023-08-21T11:16:35;3.30;;;1.10;;
48849;SDS011;63210;53.370;6.770;2023-08-21T11:19:03;4.63;;;1.00;;
48849;SDS011;63210;53.370;6.770;2023-08-21T11:21:28;2.97;;;1.10;;
48849;SDS011;63210;53.370;6.770;2023-08-21T11:23:53;3.17;;;1.00;;
48849;SDS011;63210;53.370;6.770;2023-08-21T11:26:20;3.67;;;0.93;;
48849;SDS011;63210;53.370;6.770;2023-08-21T11:28:46;1.98;;;0.85;;
48849;SDS011;63210;53.370;6.770;2023-08-21T11:31:11;4.15;;;1.20;;
48849;SDS011;63210;53.370;6.770;2023-08-21T11:33:37;4.20;;;1.10;;
48849;SDS011;63210;53.370;6.770;2023-08-21T11:36:03;3.58;;;1.35;;
48849;SDS011;63210;53.370;6.770;2023-08-21T11:38:29;3.15;;;1.10;;
48849;SDS011;63210;53.370;6.770;2023-08-21T11:40:56;6.47;;;1.00;;
48849;SDS011;63210;53.370;6.770;2023-08-21T11:43:22;2.10;;;1.02;;
48849;SDS011;63210;53.370;6.770;2023-08-21T11:45:47;4.25;;;1.05;;
48849;SDS011;63210;53.370;6.770;2023-08-21T11:48:12;3.75;;;1.00;;
48849;SDS011;63210;53.370;6.770;2023-08-21T11:50:38;4.75;;;1.17;;
48849;SDS011;63210;53.370;6.770;2023-08-21T11:53:04;3.42;;;1.02;;
48849;SDS011;63210;53.370;6.770;2023-08-21T11:55:30;4.10;;;1.10;;
48849;SDS011;63210;53.370;6.770;2023-08-21T11:57:56;4.63;;;1.25;;
48849;SDS011;63210;53.370;6.770;2023-08-21T12:00:26;4.78;;;1.40;;
48849;SDS011;63210;53.370;6.770;2023-08-21T12:02:56;4.32;;;1.05;;
48849;SDS011;63210;53.370;6.770;2023-08-21T12:05:21;5.47;;;1.20;;
48849;SDS011;63210;53.370;6.770;2023-08-21T12:07:47;3.63;;;1.10;;
48849;SDS011;63210;53.370;6.770;2023-08-21T12:10:12;2.55;;;1.10;;
48849;SDS011;63210;53.370;6.770;2023-08-21T12:12:37;3.17;;;1.30;;
48849;SDS011;63210;53.370;6.770;2023-08-21T12:15:03;3.00;;;1.20;;
48849;SDS011;63210;53.370;6.770;2023-08-21T12:17:28;4.80;;;1.30;;
48849;SDS011;63210;53.370;6.770;2023-08-21T12:19:53;3.25;;;1.10;;
48849;SDS011;63210;53.370;6.770;2023-08-21T12:22:19;3.10;;;0.93;;
48849;SDS011;63210;53.370;6.770;2023-08-21T12:24:44;3.50;;;1.13;;
48849;SDS011;63210;53.370;6.770;2023-08-21T12:27:10;3.92;;;1.00;;
48849;SDS011;63210;53.370;6.770;2023-08-21T12:29:35;2.47;;;1.00;;
48849;SDS011;63210;53.370;6.770;2023-08-21T12:32:01;5.85;;;1.75;;
48849;SDS011;63210;53.370;6.770;2023-08-21T12:34:27;3.15;;;1.08;;
48849;SDS011;63210;53.370;6.770;2023-08-21T12:36:53;4.97;;;1.40;;
48849;SDS011;63210;53.370;6.770;2023-08-21T12:39:18;4.88;;;2.13;;
48849;SDS011;63210;53.370;6.770;2023-08-21T12:41:43;3.07;;;1.30;;
48849;SDS011;63210;53.370;6.770;2023-08-21T12:44:09;5.78;;;1.30;;
48849;SDS011;63210;53.370;6.770;2023-08-21T12:46:35;3.63;;;1.17;;
48849;SDS011;63210;53.370;6.770;2023-08-21T12:49:00;4.88;;;1.25;;
48849;SDS011;63210;53.370;6.770;2023-08-21T12:51:26;2.55;;;1.00;;
48849;SDS011;63210;53.370;6.770;2023-08-21T12:53:52;3.47;;;1.25;;
48849;SDS011;63210;53.370;6.770;2023-08-21T12:56:17;3.63;;;1.20;;
48849;SDS011;63210;53.370;6.770;2023-08-21T12:58:43;3.85;;;1.10;;
48849;SDS011;63210;53.370;6.770;2023-08-21T13:01:08;4.70;;;1.47;;
48849;SDS011;63210;53.370;6.770;2023-08-21T13:03:33;3.38;;;1.30;;
48849;SDS011;63210;53.370;6.770;2023-08-21T13:05:59;3.37;;;1.43;;
48849;SDS011;63210;53.370;6.770;2023-08-21T13:08:24;4.53;;;1.40;;
48849;SDS011;63210;53.370;6.770;2023-08-21T13:10:49;4.80;;;1.20;;
48849;SDS011;63210;53.370;6.770;2023-08-21T13:13:14;3.93;;;1.30;;
48849;SDS011;63210;53.370;6.770;2023-08-21T13:15:40;4.10;;;1.10;;
48849;SDS011;63210;53.370;6.770;2023-08-21T13:18:05;4.30;;;1.23;;
48849;SDS011;63210;53.370;6.770;2023-08-21T13:20:31;6.38;;;1.60;;
48849;SDS011;63210;53.370;6.770;2023-08-21T13:22:56;4.80;;;1.35;;
48849;SDS011;63210;53.370;6.770;2023-08-21T13:25:22;5.10;;;1.77;;
48849;SDS011;63210;53.370;6.770;2023-08-21T13:27:47;4.57;;;1.20;;
48849;SDS011;63210;53.370;6.770;2023-08-21T13:30:13;5.80;;;1.88;;
48849;SDS011;63210;53.370;6.770;2023-08-21T13:32:38;7.47;;;1.40;;
48849;SDS011;63210;53.370;6.770;2023-08-21T13:35:04;5.15;;;1.30;;
48849;SDS011;63210;53.370;6.770;2023-08-21T13:37:33;5.47;;;1.77;;
48849;SDS011;63210;53.370;6.770;2023-08-21T13:39:59;9.10;;;2.70;;
48849;SDS011;63210;53.370;6.770;2023-08-21T13:42:25;8.10;;;2.40;;
48849;SDS011;63210;53.370;6.770;2023-08-21T13:44:50;9.70;;;2.72;;
48849;SDS011;63210;53.370;6.770;2023-08-21T13:47:16;10.73;;;3.20;;
48849;SDS011;63210;53.370;6.770;2023-08-21T13:49:41;8.87;;;2.63;;
48849;SDS011;63210;53.370;6.770;2023-08-21T13:52:06;5.07;;;1.63;;
48849;SDS011;63210;53.370;6.770;2023-08-21T13:54:31;7.30;;;2.67;;
48849;SDS011;63210;53.370;6.770;2023-08-21T13:56:57;8.80;;;3.05;;
48849;SDS011;63210;53.370;6.770;2023-08-21T13:59:22;9.07;;;2.92;;
48849;SDS011;63210;53.370;6.770;2023-08-21T14:01:47;7.57;;;2.97;;
48849;SDS011;63210;53.370;6.770;2023-08-21T14:04:13;8.93;;;2.83;;
48849;SDS011;63210;53.370;6.770;2023-08-21T14:06:38;10.20;;;3.20;;
48849;SDS011;63210;53.370;6.770;2023-08-21T14:09:03;10.85;;;3.30;;
48849;SDS011;63210;53.370;6.770;2023-08-21T14:11:30;12.18;;;3.72;;
48849;SDS011;63210;53.370;6.770;2023-08-21T14:13:55;7.13;;;3.50;;
48849;SDS011;63210;53.370;6.770;2023-08-21T14:16:20;10.43;;;4.20;;
48849;SDS011;63210;53.370;6.770;2023-08-21T14:18:46;11.63;;;3.97;;
48849;SDS011;63210;53.370;6.770;2023-08-21T14:21:11;11.73;;;3.55;;
48849;SDS011;63210;53.370;6.770;2023-08-21T14:23:36;10.10;;;3.63;;
48849;SDS011;63210;53.370;6.770;2023-08-21T14:26:04;12.05;;;3.72;;
48849;SDS011;63210;53.370;6.770;2023-08-21T14:28:29;9.80;;;3.60;;
48849;SDS011;63210;53.370;6.770;2023-08-21T14:30:54;11.60;;;3.80;;
48849;SDS011;63210;53.370;6.770;2023-08-21T14:33:20;12.88;;;4.80;;
48849;SDS011;63210;53.370;6.770;2023-08-21T14:35:46;10.30;;;3.38;;
48849;SDS011;63210;53.370;6.770;2023-08-21T14:38:11;9.60;;;4.55;;
48849;SDS011;63210;53.370;6.770;2023-08-21T14:40:36;12.53;;;3.87;;
48849;SDS011;63210;53.370;6.770;2023-08-21T14:43:02;11.10;;;4.40;;
48849;SDS011;63210;53.370;6.770;2023-08-21T14:45:27;14.50;;;4.63;;
48849;SDS011;63210;53.370;6.770;2023-08-21T14:47:52;12.57;;;4.10;;